Stamps, Texas
Current Conditions -  °F | °C
As of 2:15 AM on Thursday 27 Nov 2014 (Local Time) from KOSA Reporting Station
Clear Clear  
Wind Chill: 38°   Ceiling: Unl
Heat Index: 44°   Visibility: 10mi
Dew Point: 28°   Wind: 10mph
Humidity: 53%   Direction: 340°NNW
Pressure: 30.44"   Gusts: NA
Location:  32.7353°N, 94.9492°W
Report Text: KOSA 270815Z AUTO 34009KT 10SM CLR 07/M02 A3044 RMK AO1 T00661023
Loading
Personal Weather Stations






























Interactive Weather Map New forecast layout! Learn more

10-Day Weather Forecast

Advertisements
Track Severe Weather on mobile